Icatu, Brazil
Current Conditions -  °F | °C
As of 12:00 PM on Friday 28 Nov 2014 (Local Time) from SBSL Reporting Station
Scattered Clouds Scattered Clouds  
Wind Chill: 90°   Ceiling: Unl
Heat Index: 92°   Visibility: 6mi
Dew Point: 66°   Wind: 10mph
Humidity: 46%   Direction: 60°ENE
Pressure: 29.85"   Gusts: NA
Location:  2.78°S, 44.07°W
Report Text: SBSL 281500Z 06009KT 9999 SCT030 32/19 Q1011
Loading
Personal Weather Stations






























Interactive Weather Map New forecast layout! Learn more

10-Day Weather Forecast

Advertisements
Track Severe Weather on mobile